createdAt,value
2022-12-15T00:51:48.419Z,9.03
2022-12-15T00:54:36.022Z,7.43
2022-12-15T00:57:24.476Z,8.23
2022-12-15T01:00:12.533Z,9.63
2022-12-15T01:03:00.268Z,8.10
2022-12-15T01:05:48.540Z,8.33
2022-12-15T01:08:38.230Z,8.43
2022-12-15T01:11:27.365Z,8.60
2022-12-15T01:14:14.622Z,7.77
2022-12-15T01:17:02.537Z,7.37
2022-12-15T01:19:49.731Z,4.80
2022-12-15T01:22:22.223Z,4.30
2022-12-15T01:24:54.450Z,3.90
2022-12-15T01:27:25.615Z,4.17
2022-12-15T01:29:57.802Z,3.80
2022-12-15T01:32:29.277Z,4.00
2022-12-15T01:34:59.859Z,4.63
2022-12-15T01:37:30.474Z,4.60
2022-12-15T01:40:20.076Z,4.00
2022-12-15T01:42:51.452Z,3.70
2022-12-15T01:45:54.434Z,3.50
2022-12-15T01:48:31.950Z,3.80
2022-12-15T01:51:11.172Z,3.63
2022-12-15T01:53:45.656Z,3.93
2022-12-15T01:56:25.247Z,3.93
2022-12-15T01:59:00.121Z,3.37
2022-12-15T02:01:31.887Z,3.60
2022-12-15T02:04:09.647Z,3.87
2022-12-15T02:06:42.032Z,4.17
2022-12-15T02:09:14.297Z,3.63
2022-12-15T02:12:09.320Z,3.60
2022-12-15T02:15:03.779Z,3.63
2022-12-15T02:17:45.794Z,3.60
2022-12-15T02:20:43.794Z,3.73
2022-12-15T02:23:57.792Z,3.40
2022-12-15T02:27:08.853Z,3.67
2022-12-15T02:30:23.901Z,3.80
2022-12-15T02:33:12.704Z,3.90
2022-12-15T02:35:57.958Z,3.97
2022-12-15T02:38:33.508Z,4.27
2022-12-15T02:41:06.208Z,3.70
2022-12-15T02:43:43.103Z,3.97
2022-12-15T02:46:25.970Z,4.40
2022-12-15T02:49:09.810Z,4.00
2022-12-15T02:51:54.287Z,4.30
2022-12-15T02:54:44.179Z,4.57
2022-12-15T02:57:23.247Z,4.40
2022-12-15T03:00:01.332Z,4.43
2022-12-15T03:02:36.076Z,3.90
2022-12-15T03:05:10.741Z,4.90
2022-12-15T03:07:43.778Z,5.13
2022-12-15T03:10:18.298Z,5.17
2022-12-15T03:12:49.384Z,5.27
2022-12-15T03:15:20.735Z,4.97
2022-12-15T03:17:51.725Z,5.20
2022-12-15T03:20:25.121Z,5.37
2022-12-15T03:22:56.076Z,5.10
2022-12-15T03:25:28.034Z,5.50
2022-12-15T03:27:59.903Z,5.73
2022-12-15T03:30:32.070Z,5.17
2022-12-15T03:33:02.968Z,5.17
2022-12-15T03:35:37.067Z,4.90
2022-12-15T03:38:08.073Z,5.17
2022-12-15T03:40:39.081Z,5.63
2022-12-15T03:43:10.316Z,5.00
2022-12-15T03:45:43.761Z,4.93
2022-12-15T03:48:14.840Z,5.40
2022-12-15T03:50:47.759Z,4.77
2022-12-15T03:53:19.422Z,5.30
2022-12-15T03:55:50.717Z,4.97
2022-12-15T03:58:22.569Z,5.17
2022-12-15T04:00:53.731Z,5.27
2022-12-15T04:03:24.899Z,5.47
2022-12-15T04:05:58.675Z,5.47
2022-12-15T04:08:37.961Z,5.60
2022-12-15T04:11:27.724Z,5.30
2022-12-15T04:13:58.705Z,5.90
2022-12-15T04:16:33.165Z,5.47
2022-12-15T04:19:21.119Z,4.90
2022-12-15T04:21:55.244Z,4.70
2022-12-15T04:24:46.919Z,5.40
2022-12-15T04:27:36.060Z,5.40
2022-12-15T04:30:24.840Z,5.90
2022-12-15T04:33:12.341Z,6.10
2022-12-15T04:36:00.087Z,6.57
2022-12-15T04:38:50.462Z,6.40
2022-12-15T04:41:40.764Z,6.17
2022-12-15T04:44:30.250Z,5.77
2022-12-15T04:47:19.695Z,5.90
2022-12-15T04:50:07.593Z,5.87
2022-12-15T04:52:55.338Z,5.80
2022-12-15T04:55:45.041Z,6.40
2022-12-15T04:58:32.799Z,7.00
2022-12-15T05:01:20.763Z,6.30
2022-12-15T05:04:08.408Z,6.20
2022-12-15T05:06:56.513Z,6.50
2022-12-15T05:09:44.975Z,6.03
2022-12-15T05:12:36.941Z,7.13
2022-12-15T05:15:25.770Z,6.50
2022-12-15T05:18:13.729Z,6.43
2022-12-15T05:21:01.684Z,7.27
2022-12-15T05:23:50.590Z,6.60
2022-12-15T05:26:38.315Z,6.87
2022-12-15T05:29:41.995Z,7.03
2022-12-15T05:32:22.100Z,7.90
2022-12-15T05:34:53.306Z,7.20
2022-12-15T05:37:27.824Z,7.53
2022-12-15T05:39:59.510Z,8.37
2022-12-15T05:42:31.776Z,11.13
2022-12-15T05:45:08.139Z,10.07
2022-12-15T05:47:46.810Z,10.47
2022-12-15T05:50:57.627Z,9.77
2022-12-15T05:53:30.215Z,10.13
2022-12-15T05:56:08.871Z,8.87
2022-12-15T05:58:45.429Z,9.50
2022-12-15T06:01:29.070Z,8.77
2022-12-15T06:04:13.490Z,10.30
2022-12-15T06:17:44.520Z,8.83
2022-12-15T06:20:35.229Z,8.23
2022-12-15T06:23:10.824Z,7.30
2022-12-15T06:28:35.457Z,7.70
2022-12-15T06:31:16.575Z,8.27
2022-12-15T06:34:01.240Z,7.60
2022-12-15T06:39:22.344Z,6.80
2022-12-15T06:42:02.040Z,6.60
2022-12-15T06:44:39.108Z,6.47
2022-12-15T06:47:14.767Z,6.83
2022-12-15T06:49:50.380Z,6.53
2022-12-15T06:52:21.742Z,6.77
2022-12-15T06:54:57.859Z,6.60
2022-12-15T06:57:31.462Z,6.27
2022-12-15T07:00:05.183Z,6.40
2022-12-15T07:02:39.257Z,6.23
2022-12-15T07:05:15.379Z,6.57
2022-12-15T07:07:51.623Z,6.23
2022-12-15T07:10:24.414Z,6.33
2022-12-15T07:13:00.441Z,6.73
2022-12-15T07:15:33.007Z,6.30
2022-12-15T07:18:04.314Z,6.20
2022-12-15T07:20:42.186Z,7.07
2022-12-15T07:23:34.396Z,5.97
2022-12-15T07:26:16.779Z,6.27
2022-12-15T07:28:50.035Z,6.67
2022-12-15T07:31:21.808Z,7.13
2022-12-15T07:33:53.086Z,6.30
2022-12-15T07:36:26.469Z,6.67
2022-12-15T07:39:03.892Z,7.83
2022-12-15T07:41:36.343Z,7.30
2022-12-15T07:44:07.596Z,6.70
2022-12-15T07:46:40.527Z,6.77
2022-12-15T07:52:15.511Z,6.70
2022-12-15T07:54:46.399Z,7.10
2022-12-15T07:57:17.377Z,7.17
2022-12-15T07:59:48.492Z,7.13
2022-12-15T08:02:19.520Z,7.67
2022-12-15T08:04:54.352Z,6.70
2022-12-15T08:07:30.654Z,7.00
2022-12-15T08:10:01.669Z,7.23
2022-12-15T08:12:34.752Z,7.47
2022-12-15T08:15:07.048Z,6.10
2022-12-15T08:17:38.864Z,6.57
2022-12-15T08:20:11.081Z,6.80
2022-12-15T08:22:43.637Z,6.53
2022-12-15T08:25:14.841Z,7.27
2022-12-15T08:27:46.432Z,6.47
2022-12-15T08:30:17.661Z,7.17
2022-12-15T08:32:52.030Z,9.83
2022-12-15T08:35:54.502Z,7.57
2022-12-15T08:38:19.250Z,6.90
2022-12-15T08:40:50.187Z,7.90
2022-12-15T08:43:21.655Z,7.37
2022-12-15T08:45:53.253Z,6.63
2022-12-15T08:48:24.626Z,6.60
